MST,Max TemperatureF,Mean TemperatureF,Min TemperatureF,Max Dew PointF,MeanDew PointF,Min DewpointF,Max Humidity, Mean Humidity, Min Humidity, Max Sea Level PressureIn, Mean Sea Level PressureIn, Min Sea Level PressureIn, Max VisibilityMiles, Mean VisibilityMiles, Min VisibilityMiles, Max Wind SpeedMPH, Mean Wind SpeedMPH, Max Gust SpeedMPH,PrecipitationIn, CloudCover, Events, WindDirDegrees
2012-11-1,9,7,5,3,2,0,85,79,69,30.30,30.25,30.19,20,13,3,18,7,24,0.03,6,Snow,293
2012-11-2,14,3,-8,5,0,-13,85,76,56,30.30,30.14,29.89,20,20,19,20,7,26,0.00,5,Snow,95
2012-11-3,7,4,2,4,1,-2,85,79,66,30.02,29.94,29.89,20,12,1,18,11,26,0.04,7,Snow,281
2012-11-4,14,7,0,10,4,-2,86,81,70,30.06,29.94,29.74,20,8,1,12,7,,0.02,7,Snow,82
2012-11-5,12,7,2,9,5,3,85,79,66,30.11,29.93,29.74,15,8,3,18,12,23,0.02,8,Snow,280
2012-11-6,12,8,4,7,5,1,85,80,69,30.45,30.30,30.13,20,7,4,16,11,22,0.02,5,Snow,285
2012-11-7,7,-3,-13,1,-6,-18,85,81,71,30.58,30.56,30.47,20,3,0,9,4,,0.00,5,Fog-Snow,64
2012-11-8,-2,-9,-16,-8,-14,-24,85,76,60,30.65,30.60,30.57,20,4,0,6,2,,0.00,5,Fog,51
2012-11-9,0,-8,-17,-6,-12,-20,85,76,66,30.60,30.24,29.93,15,12,0,9,5,,0.00,3,Fog,100
2012-11-10,-2,-12,-19,-8,-18,-26,85,75,62,29.94,29.91,29.88,,,,8,3,,0.00,2,,325
2012-11-11,8,-7,-22,5,-10,-29,85,77,61,30.21,30.06,29.93,20,20,19,12,3,,0.00,6,Snow,330
2012-11-12,7,-6,-20,3,-4,-26,92,79,63,30.33,30.28,30.17,20,20,19,8,5,,0.00,4,Snow,32
2012-11-13,2,-14,-29,-2,-22,-36,85,73,56,30.17,30.08,30.01,20,14,4,12,4,18,0.00,3,Snow,298
2012-11-14,-2,-14,-25,-11,-23,-31,77,72,59,30.14,30.04,29.95,20,20,20,7,3,,0.00,1,Snow,112
2012-11-15,-11,-18,-24,-20,-23,-27,77,72,58,30.23,30.18,30.12,20,14,10,5,2,,0.00,5,Snow,56
2012-11-16,-12,-18,-24,-18,-25,-31,77,71,57,30.42,30.32,30.23,20,16,10,6,2,,0.00,4,Snow,54
2012-11-17,-12,-20,-27,-18,-25,-35,77,71,57,30.43,30.32,30.21,20,15,8,6,3,,0.01,5,Snow,348
2012-11-18,-13,-20,-28,-18,-21,-26,77,72,60,30.30,30.23,30.18,20,9,2,10,5,,0.03,7,Snow,280
2012-11-19,-11,-14,-17,-17,-20,-22,77,72,61,30.40,30.37,30.31,15,7,4,14,8,,0.04,7,Snow,283
2012-11-20,-7,-11,-15,-13,-15,-18,77,74,61,30.42,30.37,30.29,20,12,4,8,1,,0.00,6,Snow,99
2012-11-21,-9,-17,-25,-15,-26,-33,77,71,56,30.43,30.32,30.28,,,,8,2,,0.00,1,Snow,90
2012-11-22,-11,-20,-28,-18,-24,-35,77,72,54,30.58,30.54,30.45,20,11,4,5,1,,0.02,5,Snow,89
2012-11-23,-7,-14,-22,-15,-19,-27,77,73,60,30.53,30.47,30.45,20,14,6,5,2,,0.02,7,Snow,284
2012-11-24,-12,-20,-28,-20,-29,-35,77,70,54,30.49,30.44,30.38,20,13,10,5,2,,0.00,4,Snow,77
2012-11-25,-14,-21,-28,-20,-25,-31,77,71,56,30.45,30.43,30.40,15,11,3,4,1,,0.00,5,Snow,51
2012-11-26,3,-10,-22,-1,-10,-22,85,78,64,30.41,30.18,29.94,10,5,2,6,1,,0.16,8,Snow,102
2012-11-27,10,0,-10,5,-5,-15,85,74,56,30.54,30.30,29.94,20,7,0,34,15,47,0.08,6,Snow,289
2012-11-28,-9,-20,-31,-17,-31,-38,77,69,51,30.54,30.44,30.27,,,,14,5,,0.00,2,Snow,70
2012-11-29,-13,-22,-30,-20,-27,-35,77,71,54,30.34,30.30,30.26,20,14,8,6,1,,0.02,5,Snow,108
2012-11-30,-5,-15,-25,-11,-18,-24,77,74,62,30.37,30.32,30.24,20,13,8,5,1,,0.01,7,Snow,83